Time;durP1;ratioP1;P1;durP2;ratioP2;P2;SDS_P1;SDS_P2;PMS_P1;PMS_P2;Temp;Humidity;BMP_temperature;BMP_pressure;BME280_temperature;BME280_humidity;BME280_pressure;Samples;Min_cycle;Max_cycle;Signal;HPM_P1;HPM_P2
2024/02/27 00:02:12;;;;;;;6.87;3.60;;;;;;;-2.22;100.00;100529.50;4946617;28;20050;-72
2024/02/27 00:04:41;;;;;;;7.73;3.33;;;;;;;-2.09;100.00;100522.94;4995065;28;20139;-72
2024/02/27 00:07:08;;;;;;;9.27;4.20;;;;;;;-2.17;100.00;100512.78;5027525;28;20080;-72
2024/02/27 00:09:34;;;;;;;9.40;3.90;;;;;;;-2.19;100.00;100512.03;4994913;28;20057;-72
2024/02/27 00:12:00;;;;;;;9.10;3.77;;;;;;;-2.27;100.00;100526.19;4962059;28;20050;-72
2024/02/27 00:14:26;;;;;;;7.53;4.13;;;;;;;-2.23;100.00;100523.44;4978558;28;20045;-72
2024/02/27 00:16:55;;;;;;;5.80;3.33;;;;;;;-2.10;100.00;100513.41;5031047;28;20054;-72
2024/02/27 00:19:21;;;;;;;6.93;3.80;;;;;;;-2.18;100.00;100511.09;4982399;28;20136;-71
2024/02/27 00:21:48;;;;;;;9.20;3.60;;;;;;;-2.15;100.00;100504.91;4982014;28;20127;-72
2024/02/27 00:24:14;;;;;;;5.40;3.57;;;;;;;-2.05;100.00;100511.50;4982412;28;20061;-73
2024/02/27 00:26:40;;;;;;;8.00;3.60;;;;;;;-2.05;100.00;100514.09;4981877;28;20042;-72
2024/02/27 00:29:06;;;;;;;8.83;4.47;;;;;;;-2.06;100.00;100525.41;4994347;28;20054;-74
2024/02/27 00:31:32;;;;;;;7.83;4.23;;;;;;;-2.08;100.00;100524.63;4962029;28;20148;-73
2024/02/27 00:33:58;;;;;;;9.67;4.50;;;;;;;-2.07;100.00;100515.91;4946058;28;20057;-73
2024/02/27 00:36:23;;;;;;;8.40;4.03;;;;;;;-2.09;100.00;100525.53;4962783;28;20064;-74
2024/02/27 00:38:49;;;;;;;8.33;3.63;;;;;;;-2.07;100.00;100529.78;4963459;28;20373;-73
2024/02/27 00:41:15;;;;;;;8.33;4.30;;;;;;;-2.13;100.00;100535.19;4979097;28;20471;-72
2024/02/27 00:43:42;;;;;;;11.43;4.47;;;;;;;-2.18;100.00;100518.91;5003596;28;20056;-70
2024/02/27 00:46:11;;;;;;;11.90;4.13;;;;;;;-2.21;100.00;100524.22;5018057;28;20438;-71
2024/02/27 00:48:37;;;;;;;7.60;4.10;;;;;;;-2.21;100.00;100518.16;5017233;28;20057;-72
2024/02/27 00:51:03;;;;;;;6.93;3.73;;;;;;;-2.16;100.00;100521.44;5000802;28;20151;-72
2024/02/27 00:53:29;;;;;;;5.63;3.67;;;;;;;-2.23;100.00;100520.00;4999941;28;20045;-73
2024/02/27 00:55:55;;;;;;;9.63;3.80;;;;;;;-2.21;100.00;100523.38;5013296;28;20102;-73
2024/02/27 00:58:22;;;;;;;8.67;4.50;;;;;;;-2.22;100.00;100519.09;4997901;28;20049;-72
2024/02/27 01:00:51;;;;;;;8.23;4.10;;;;;;;-2.25;100.00;100537.41;4974262;28;20052;-72
2024/02/27 01:03:17;;;;;;;7.93;3.80;;;;;;;-2.31;100.00;100542.84;5010677;28;20085;-72
2024/02/27 01:05:43;;;;;;;6.97;3.63;;;;;;;-2.33;100.00;100542.03;4994334;28;20080;-73
2024/02/27 01:08:09;;;;;;;7.63;4.17;;;;;;;-2.25;100.00;100548.66;4962428;28;20107;-72
2024/02/27 01:10:35;;;;;;;7.67;3.70;;;;;;;-2.25;100.00;100553.03;4958736;28;20168;-71
2024/02/27 01:13:02;;;;;;;6.77;3.90;;;;;;;-2.17;100.00;100553.59;4976079;28;20081;-72
2024/02/27 01:15:28;;;;;;;11.57;4.20;;;;;;;-2.10;100.00;100552.44;4945493;28;20054;-72
2024/02/27 01:17:54;;;;;;;9.77;4.10;;;;;;;-2.02;100.00;100553.88;4993911;28;20042;-71
2024/02/27 01:20:21;;;;;;;6.67;3.87;;;;;;;-2.03;100.00;100554.75;4961200;28;20488;-72
2024/02/27 01:22:48;;;;;;;8.97;4.53;;;;;;;-2.03;100.00;100548.72;4961319;28;20131;-72
2024/02/27 01:25:16;;;;;;;9.13;4.03;;;;;;;-1.94;100.00;100562.22;4961180;28;20050;-71
2024/02/27 01:27:41;;;;;;;9.97;4.73;;;;;;;-1.96;100.00;100565.78;4977062;28;20092;-72
2024/02/27 01:30:07;;;;;;;8.73;4.10;;;;;;;-1.94;100.00;100561.38;4977170;28;20518;-72
2024/02/27 01:32:33;;;;;;;8.27;4.10;;;;;;;-1.90;100.00;100549.94;4976740;28;20060;-73
2024/02/27 01:34:59;;;;;;;10.07;4.03;;;;;;;-2.00;100.00;100559.84;4993331;28;20081;-71
2024/02/27 01:37:25;;;;;;;8.17;3.93;;;;;;;-2.03;100.00;100553.94;4993531;28;20053;-69
2024/02/27 01:39:51;;;;;;;12.47;4.53;;;;;;;-1.99;100.00;100545.09;4976995;28;20062;-68
2024/02/27 01:42:17;;;;;;;9.80;4.60;;;;;;;-2.06;100.00;100554.88;4976900;28;20116;-68
2024/02/27 01:44:48;;;;;;;6.83;4.07;;;;;;;-1.92;100.00;100543.94;4960832;28;20061;-68
2024/02/27 01:47:14;;;;;;;10.10;4.23;;;;;;;-1.93;100.00;100545.72;4977134;28;20389;-67
2024/02/27 01:49:41;;;;;;;5.80;3.60;;;;;;;-1.89;100.00;100542.06;4977519;28;20123;-70
2024/02/27 01:52:07;;;;;;;9.87;4.70;;;;;;;-1.84;100.00;100547.09;4977616;28;20519;-69
2024/02/27 01:54:35;;;;;;;8.53;3.97;;;;;;;-1.82;100.00;100546.16;4977057;28;20054;-69
2024/02/27 01:57:01;;;;;;;7.63;4.10;;;;;;;-1.76;100.00;100551.13;4977563;28;20150;-68
2024/02/27 01:59:27;;;;;;;7.33;3.93;;;;;;;-1.81;100.00;100545.25;4977964;28;20420;-67
2024/02/27 02:01:53;;;;;;;9.80;3.70;;;;;;;-1.84;100.00;100540.16;4961551;28;20078;-68
2024/02/27 02:04:19;;;;;;;5.57;3.60;;;;;;;-1.76;100.00;100553.72;4995035;28;20054;-68
2024/02/27 02:06:47;;;;;;;9.13;4.07;;;;;;;-1.76;100.00;100539.84;5033800;28;20057;-68
2024/02/27 02:09:14;;;;;;;7.60;4.20;;;;;;;-1.82;100.00;100545.31;5020725;28;20041;-68
2024/02/27 02:11:42;;;;;;;10.03;4.07;;;;;;;-1.82;100.00;100548.75;5034825;28;20067;-68
2024/02/27 02:14:08;;;;;;;9.40;3.90;;;;;;;-1.67;100.00;100544.69;5017543;28;20499;-67
2024/02/27 02:16:34;;;;;;;6.70;4.20;;;;;;;-1.79;100.00;100548.66;5001072;28;20041;-70
2024/02/27 02:19:00;;;;;;;5.53;3.67;;;;;;;-1.77;100.00;100543.38;4961518;28;20539;-69
2024/02/27 02:21:26;;;;;;;10.17;4.50;;;;;;;-1.76;100.00;100539.84;4991688;28;20085;-68
2024/02/27 02:23:53;;;;;;;7.53;4.20;;;;;;;-1.72;100.00;100542.28;4961229;28;20473;-69
2024/02/27 02:26:19;;;;;;;10.83;4.40;;;;;;;-1.73;100.00;100543.19;4929433;28;20141;-68
2024/02/27 02:28:46;;;;;;;8.93;3.50;;;;;;;-1.67;100.00;100554.25;4945195;28;20046;-68
2024/02/27 02:31:12;;;;;;;8.70;4.33;;;;;;;-1.68;100.00;100556.03;4977348;28;20050;-68
2024/02/27 02:33:39;;;;;;;8.27;4.43;;;;;;;-1.73;100.00;100555.34;4960873;28;20045;-69
2024/02/27 02:36:05;;;;;;;8.73;4.07;;;;;;;-1.73;100.00;100539.72;4922742;28;20055;-68
2024/02/27 02:38:31;;;;;;;5.80;3.63;;;;;;;-1.66;100.00;100538.56;4939020;29;20062;-67
2024/02/27 02:40:57;;;;;;;8.73;4.37;;;;;;;-1.60;100.00;100530.56;4922437;29;20051;-68
2024/02/27 02:43:23;;;;;;;6.50;3.63;;;;;;;-1.49;100.00;100533.56;4938316;29;20055;-68
2024/02/27 02:45:48;;;;;;;6.50;4.10;;;;;;;-1.49;100.00;100538.75;4939210;29;20407;-68
2024/02/27 02:48:14;;;;;;;9.93;4.07;;;;;;;-1.48;100.00;100534.41;4955094;29;20047;-68
2024/02/27 02:50:41;;;;;;;7.63;3.93;;;;;;;-1.51;100.00;100540.59;4906908;29;20062;-68
2024/02/27 02:53:06;;;;;;;8.07;4.23;;;;;;;-1.56;100.00;100534.72;4938906;29;20102;-68
2024/02/27 02:55:32;;;;;;;7.03;4.17;;;;;;;-1.62;100.00;100542.78;4945289;28;20062;-68
2024/02/27 02:57:58;;;;;;;11.57;4.50;;;;;;;-1.64;100.00;100535.91;4945189;28;20433;-68
2024/02/27 03:00:24;;;;;;;7.90;4.10;;;;;;;-1.54;100.00;100530.31;4945795;28;20034;-68
2024/02/27 03:02:51;;;;;;;8.10;4.30;;;;;;;-1.40;100.00;100533.22;4961608;28;20089;-69
2024/02/27 03:05:17;;;;;;;7.93;3.80;;;;;;;-1.34;100.00;100538.16;4993864;28;20054;-69
2024/02/27 03:07:43;;;;;;;7.17;3.80;;;;;;;-1.25;100.00;100539.53;4959381;28;20506;-69
2024/02/27 03:10:09;;;;;;;5.73;3.53;;;;;;;-1.17;100.00;100534.88;5000167;28;20046;-68
2024/02/27 03:12:39;;;;;;;6.47;3.67;;;;;;;-1.09;100.00;100544.06;4983620;28;20144;-71
2024/02/27 03:15:06;;;;;;;7.72;3.78;;;;;;;-1.08;100.00;100553.59;4983684;28;20045;-72
2024/02/27 03:17:32;;;;;;;7.67;4.30;;;;;;;-1.16;100.00;100552.19;5000652;28;20037;-71
2024/02/27 03:19:58;;;;;;;9.27;4.23;;;;;;;-1.12;100.00;100551.19;4984081;28;20052;-70
2024/02/27 03:22:24;;;;;;;7.30;3.70;;;;;;;-1.06;100.00;100540.50;5000222;28;20482;-72
2024/02/27 03:24:50;;;;;;;9.43;4.10;;;;;;;-1.11;100.00;100551.13;4983834;28;20045;-72
2024/02/27 03:27:17;;;;;;;10.43;3.97;;;;;;;-1.08;100.00;100548.38;4999672;28;20055;-72
2024/02/27 03:29:43;;;;;;;11.60;4.13;;;;;;;-1.08;100.00;100556.19;5000169;28;20037;-69
2024/02/27 03:32:09;;;;;;;7.40;3.83;;;;;;;-1.04;100.00;100562.09;4967883;28;20047;-70
2024/02/27 03:34:37;;;;;;;7.50;3.80;;;;;;;-1.11;100.00;100548.50;4985435;28;20214;-72
2024/02/27 03:37:05;;;;;;;9.47;4.30;;;;;;;-1.13;100.00;100552.06;5015179;28;20132;-72
2024/02/27 03:39:30;;;;;;;10.57;3.80;;;;;;;-1.08;100.00;100545.78;4998550;28;20562;-72
2024/02/27 03:41:56;;;;;;;9.67;4.33;;;;;;;-1.03;100.00;100542.97;4964273;28;20050;-72
2024/02/27 03:44:22;;;;;;;8.47;4.07;;;;;;;-1.00;100.00;100541.06;4963513;28;20050;-71
2024/02/27 03:46:48;;;;;;;10.40;3.97;;;;;;;-0.97;100.00;100543.53;4995075;28;20143;-70
2024/02/27 03:49:14;;;;;;;7.17;4.10;;;;;;;-0.88;100.00;100543.19;4979068;28;20584;-71
2024/02/27 03:51:40;;;;;;;9.93;3.80;;;;;;;-0.91;100.00;100545.91;4995246;28;20503;-71
2024/02/27 03:54:06;;;;;;;6.60;3.80;;;;;;;-0.93;100.00;100542.53;4963445;28;20038;-70
2024/02/27 03:56:32;;;;;;;8.60;4.30;;;;;;;-0.95;100.00;100559.97;4995251;28;20060;-71
2024/02/27 03:58:58;;;;;;;8.93;4.03;;;;;;;-0.94;100.00;100546.00;4962645;28;20415;-69
2024/02/27 04:01:23;;;;;;;9.63;3.60;;;;;;;-0.87;100.00;100557.03;4962597;28;20057;-69
2024/02/27 04:03:49;;;;;;;7.73;4.00;;;;;;;-0.76;100.00;100560.91;4994804;28;20589;-70
2024/02/27 04:06:15;;;;;;;8.87;3.70;;;;;;;-0.74;100.00;100568.66;4994488;28;20404;-70
2024/02/27 04:08:41;;;;;;;7.67;3.63;;;;;;;-0.72;100.00;100569.44;4994176;28;20156;-71
2024/02/27 04:11:08;;;;;;;7.83;4.07;;;;;;;-0.78;100.00;100574.91;4944101;28;20061;-71
2024/02/27 04:13:35;;;;;;;6.10;3.73;;;;;;;-0.63;100.00;100579.50;4974988;28;20054;-70
2024/02/27 04:16:00;;;;;;;8.10;4.10;;;;;;;-0.74;100.00;100582.53;4927042;28;20050;-70
2024/02/27 04:18:26;;;;;;;8.40;4.10;;;;;;;-0.75;100.00;100580.84;4975433;28;20473;-73
2024/02/27 04:20:52;;;;;;;6.53;4.10;;;;;;;-0.73;100.00;100573.81;4991621;28;20401;-76
2024/02/27 04:23:17;;;;;;;7.40;3.90;;;;;;;-0.72;100.00;100582.47;4991525;28;20493;-74
2024/02/27 04:25:43;;;;;;;8.67;4.17;;;;;;;-0.74;100.00;100577.31;4991230;28;20151;-75
2024/02/27 04:28:09;;;;;;;11.67;4.53;;;;;;;-0.72;100.00;100570.28;4958208;28;20421;-69
2024/02/27 04:30:34;;;;;;;7.17;4.03;;;;;;;-0.76;100.00;100576.56;4991891;28;20061;-73
2024/02/27 04:33:00;;;;;;;8.80;3.90;;;;;;;-0.73;100.00;100581.66;4975221;28;20042;-71
2024/02/27 04:35:26;;;;;;;9.50;4.40;;;;;;;-0.71;100.00;100582.41;4991209;28;20141;-70
2024/02/27 04:37:53;;;;;;;7.13;4.33;;;;;;;-0.63;100.00;100585.53;4929911;28;20042;-70
2024/02/27 04:40:19;;;;;;;12.50;4.87;;;;;;;-0.64;100.00;100588.22;4991143;28;20125;-71
2024/02/27 04:42:44;;;;;;;9.30;4.00;;;;;;;-0.61;100.00;100578.50;4958572;28;20078;-71
2024/02/27 04:45:10;;;;;;;10.37;3.80;;;;;;;-0.54;100.00;100581.72;5004037;28;20120;-70
2024/02/27 04:47:36;;;;;;;17.83;4.93;;;;;;;-0.61;100.00;100578.50;5008063;28;20088;-71
2024/02/27 04:50:02;;;;;;;9.47;4.33;;;;;;;-0.54;100.00;100592.97;5042044;28;21474;-72
2024/02/27 04:52:28;;;;;;;10.50;4.33;;;;;;;-0.52;100.00;100590.31;5056164;28;20570;-74
2024/02/27 04:54:54;;;;;;;10.40;4.50;;;;;;;-0.51;100.00;100581.59;5053934;28;20059;-70
2024/02/27 04:57:21;;;;;;;8.40;4.50;;;;;;;-0.57;100.00;100581.84;5035773;28;20051;-72
2024/02/27 04:59:49;;;;;;;8.50;4.33;;;;;;;-0.50;100.00;100578.91;5038332;28;20444;-71
2024/02/27 05:02:15;;;;;;;15.93;4.83;;;;;;;-0.43;100.00;100582.09;5053592;28;20108;-69
2024/02/27 05:04:41;;;;;;;7.97;4.80;;;;;;;-0.43;100.00;100585.53;5035412;28;20110;-67
2024/02/27 05:07:06;;;;;;;11.83;4.50;;;;;;;-0.50;100.00;100578.91;5053052;28;20037;-68
2024/02/27 05:09:32;;;;;;;10.17;5.03;;;;;;;-0.48;100.00;100579.66;5051150;28;20041;-69
2024/02/27 05:12:00;;;;;;;9.73;4.60;;;;;;;-0.43;100.00;100588.16;5023262;28;20049;-71
2024/02/27 05:14:28;;;;;;;8.40;4.90;;;;;;;-0.50;100.00;100591.09;5029525;28;20106;-70
2024/02/27 05:16:54;;;;;;;9.60;4.57;;;;;;;-0.55;100.00;100600.88;5006114;28;20060;-72
2024/02/27 05:19:20;;;;;;;11.50;4.33;;;;;;;-0.53;100.00;100588.63;5039037;28;20482;-70
2024/02/27 05:21:45;;;;;;;11.60;4.50;;;;;;;-0.57;100.00;100598.31;5038690;28;20040;-73
2024/02/27 05:24:11;;;;;;;12.07;4.67;;;;;;;-0.57;100.00;100594.91;5031915;28;20041;-72
2024/02/27 05:26:37;;;;;;;10.77;5.17;;;;;;;-0.52;100.00;100587.69;5023078;28;20041;-76
2024/02/27 05:29:03;;;;;;;11.37;4.73;;;;;;;-0.58;100.00;100604.47;5032911;28;20135;-74
2024/02/27 05:31:30;;;;;;;13.27;4.90;;;;;;;-0.50;100.00;100607.59;5013364;28;20163;-77
2024/02/27 05:33:59;;;;;;;13.40;4.73;;;;;;;-0.45;100.00;100603.06;5030541;28;20136;-79
2024/02/27 05:36:27;;;;;;;9.90;4.93;;;;;;;-0.42;100.00;100609.88;5011998;28;20041;-74
2024/02/27 05:38:53;;;;;;;12.33;5.33;;;;;;;-0.47;100.00;100606.63;5013565;28;20049;-76
2024/02/27 05:41:20;;;;;;;12.40;5.00;;;;;;;-0.46;100.00;100598.72;5035598;28;20114;-79
2024/02/27 05:43:47;;;;;;;10.50;4.83;;;;;;;-0.44;100.00;100599.50;5035014;28;20052;-78
2024/02/27 05:46:13;;;;;;;12.67;5.23;;;;;;;-0.41;100.00;100611.56;4985643;28;20033;-75
2024/02/27 05:48:41;;;;;;;10.93;5.17;;;;;;;-0.38;100.00;100601.84;5018167;28;20037;-77
2024/02/27 05:51:06;;;;;;;13.57;5.83;;;;;;;-0.37;100.00;100608.75;5019268;28;20154;-79
2024/02/27 05:53:33;;;;;;;10.07;4.80;;;;;;;-0.31;100.00;100611.09;5019250;28;20861;-78
2024/02/27 05:55:59;;;;;;;11.03;5.10;;;;;;;-0.34;100.00;100608.63;5018086;28;20041;-78
2024/02/27 05:58:24;;;;;;;13.20;4.80;;;;;;;-0.28;100.00;100620.59;5034553;28;20037;-78
2024/02/27 06:00:52;;;;;;;10.43;4.77;;;;;;;-0.25;100.00;100603.00;5017620;28;20041;-74
2024/02/27 06:03:18;;;;;;;11.27;4.50;;;;;;;-0.21;100.00;100622.84;5034813;28;20089;-76
2024/02/27 06:05:44;;;;;;;8.60;4.90;;;;;;;-0.29;100.00;100617.13;5000879;28;20041;-75
2024/02/27 06:08:10;;;;;;;9.53;4.67;;;;;;;-0.22;100.00;100608.13;5017148;28;20383;-78
2024/02/27 06:10:36;;;;;;;12.20;4.90;;;;;;;-0.24;100.00;100616.91;5000567;28;20726;-79
2024/02/27 06:13:03;;;;;;;10.63;4.70;;;;;;;-0.16;100.00;100623.50;5016434;28;20139;-74
2024/02/27 06:15:28;;;;;;;13.07;4.67;;;;;;;-0.11;100.00;100615.47;5001680;28;20128;-79
2024/02/27 06:17:54;;;;;;;7.63;4.77;;;;;;;-0.01;100.00;100628.06;5000659;28;20041;-79
2024/02/27 06:23:04;;;;;;;12.17;4.33;;;;;;;0.11;100.00;100620.59;5005140;28;20060;-84
2024/02/27 06:25:30;;;;;;;9.70;5.17;;;;;;;0.11;100.00;100623.22;5019170;28;20050;-82
2024/02/27 06:27:56;;;;;;;10.03;4.43;;;;;;;0.13;100.00;100634.41;4985190;28;20049;-85
2024/02/27 06:30:21;;;;;;;10.30;4.70;;;;;;;0.22;100.00;100620.94;5003596;28;20048;-85
2024/02/27 06:32:47;;;;;;;13.60;5.10;;;;;;;0.20;100.00;100613.16;5025160;28;20053;-81
2024/02/27 06:35:13;;;;;;;9.50;5.30;;;;;;;0.34;100.00;100612.56;5024432;28;20038;-82
2024/02/27 06:37:40;;;;;;;9.03;5.00;;;;;;;0.44;100.00;100619.03;4990398;28;20136;-81
2024/02/27 06:40:06;;;;;;;15.73;6.07;;;;;;;0.43;100.00;100628.63;4985406;28;20045;-81
2024/02/27 06:42:36;;;;;;;12.33;5.37;;;;;;;0.38;100.00;100629.78;5017007;28;20052;-77
2024/02/27 06:45:04;;;;;;;9.63;4.87;;;;;;;0.44;100.00;100625.13;5001366;28;20048;-79
2024/02/27 06:47:30;;;;;;;12.00;4.93;;;;;;;0.58;100.00;100616.63;5000259;28;20087;-78
2024/02/27 06:49:58;;;;;;;11.20;4.93;;;;;;;0.60;100.00;100631.31;5015463;28;20076;-79
2024/02/27 06:52:25;;;;;;;11.70;5.03;;;;;;;0.73;100.00;100639.44;5017887;28;20060;-78
2024/02/27 06:54:54;;;;;;;9.43;5.00;;;;;;;0.77;100.00;100631.38;5019662;28;20415;-78
2024/02/27 06:57:20;;;;;;;9.80;5.47;;;;;;;0.73;100.00;100642.91;5021456;28;20045;-76
2024/02/27 06:59:45;;;;;;;8.73;5.10;;;;;;;0.66;100.00;100636.25;5000066;28;20386;-74
2024/02/27 07:02:11;;;;;;;15.93;4.70;;;;;;;0.75;100.00;100632.38;4984085;28;20140;-78
2024/02/27 07:04:37;;;;;;;7.80;4.73;;;;;;;0.77;100.00;100641.00;5033006;28;20041;-76
2024/02/27 07:07:04;;;;;;;11.13;4.97;;;;;;;0.79;100.00;100637.41;5001006;28;20048;-80
2024/02/27 07:09:31;;;;;;;13.37;5.33;;;;;;;0.83;100.00;100638.09;5052763;28;20390;-78
2024/02/27 07:11:59;;;;;;;9.20;5.20;;;;;;;0.98;100.00;100653.91;5013045;28;20453;-78
2024/02/27 07:14:29;;;;;;;9.73;4.77;;;;;;;0.89;100.00;100646.47;5025543;28;20468;-80
2024/02/27 07:16:55;;;;;;;9.80;4.97;;;;;;;0.96;100.00;100653.13;5044219;28;20047;-78
2024/02/27 07:19:21;;;;;;;10.13;4.90;;;;;;;0.98;100.00;100659.16;5048441;28;20032;-76
2024/02/27 07:21:48;;;;;;;13.30;6.27;;;;;;;1.12;100.00;100648.84;5008391;28;20041;-80
2024/02/27 07:24:17;;;;;;;9.23;4.97;;;;;;;1.06;100.00;100656.97;4971258;28;20050;-85
2024/02/27 07:26:43;;;;;;;10.73;5.10;;;;;;;1.18;100.00;100661.66;4973479;28;20046;-80
2024/02/27 07:29:09;;;;;;;11.33;4.90;;;;;;;1.12;100.00;100667.16;4973613;28;20062;-83
2024/02/27 07:31:35;;;;;;;11.70;5.43;;;;;;;1.22;100.00;100663.19;4957009;28;20571;-80
2024/02/27 07:34:03;;;;;;;8.17;4.97;;;;;;;1.27;100.00;100644.63;4957360;28;20054;-82
2024/02/27 07:36:29;;;;;;;10.97;5.07;;;;;;;1.44;100.00;100648.13;4972475;28;20165;-82
2024/02/27 07:38:55;;;;;;;10.63;5.53;;;;;;;1.53;100.00;100646.81;4972569;28;20487;-82
2024/02/27 07:41:22;;;;;;;9.47;4.90;;;;;;;1.67;100.00;100660.06;4969081;28;20038;-83
2024/02/27 07:43:48;;;;;;;10.60;4.93;;;;;;;1.69;100.00;100661.66;4984146;28;20077;-79
2024/02/27 07:46:14;;;;;;;11.70;5.50;;;;;;;1.85;100.00;100653.03;5005100;28;20038;-83
2024/02/27 07:48:43;;;;;;;12.70;5.47;;;;;;;1.99;100.00;100655.78;4960566;28;20038;-82
2024/02/27 07:51:32;;;;;;;10.30;4.63;;;;;;;2.36;100.00;100651.16;4991388;28;20038;-82
2024/02/27 07:53:58;;;;;;;15.93;5.37;;;;;;;2.41;100.00;100654.38;4974804;28;20042;-81
2024/02/27 07:56:26;;;;;;;9.90;4.90;;;;;;;2.51;100.00;100647.69;4998934;28;20357;-79
2024/02/27 07:58:52;;;;;;;11.50;5.20;;;;;;;2.64;100.00;100658.38;5011099;28;20045;-79
2024/02/27 08:01:18;;;;;;;9.93;4.63;;;;;;;2.79;100.00;100647.91;5014743;28;20029;-78
2024/02/27 08:03:44;;;;;;;7.67;4.90;;;;;;;2.80;100.00;100641.72;5029615;28;20041;-81
2024/02/27 08:06:10;;;;;;;12.07;5.67;;;;;;;2.78;100.00;100654.06;5032238;28;20107;-79
2024/02/27 08:08:36;;;;;;;15.07;5.27;;;;;;;2.73;100.00;100635.13;4999322;28;21068;-79
2024/02/27 08:11:06;;;;;;;11.93;5.80;;;;;;;2.89;100.00;100643.00;5032182;28;20056;-74
2024/02/27 08:13:32;;;;;;;10.52;5.05;;;;;;;3.10;100.00;100637.38;5044589;28;20056;-77
2024/02/27 08:15:57;;;;;;;10.20;5.07;;;;;;;3.36;100.00;100639.38;5062379;28;20150;-80
2024/02/27 08:18:24;;;;;;;11.00;5.33;;;;;;;3.52;100.00;100646.34;5061105;28;20045;-79
2024/02/27 08:20:49;;;;;;;14.07;5.63;;;;;;;3.90;100.00;100639.69;5045402;28;20033;-79
2024/02/27 08:23:16;;;;;;;12.87;5.63;;;;;;;4.54;100.00;100630.38;5058549;28;20047;-79
2024/02/27 08:25:42;;;;;;;10.67;6.13;;;;;;;5.20;100.00;100641.88;5018233;28;20487;-74
2024/02/27 08:28:08;;;;;;;12.85;5.50;;;;;;;5.89;100.00;100639.00;5018664;28;20048;-77
2024/02/27 08:30:35;;;;;;;12.50;6.38;;;;;;;6.17;93.69;100651.13;5017606;28;20041;-75
2024/02/27 08:33:00;;;;;;;10.25;5.80;;;;;;;6.38;90.80;100644.41;5057277;28;20373;-77
2024/02/27 08:35:26;;;;;;;11.82;5.25;;;;;;;6.44;87.95;100643.97;5051109;28;20044;-73
2024/02/27 08:37:53;;;;;;;13.70;5.97;;;;;;;6.26;86.00;100645.22;5032638;28;20043;-78
2024/02/27 08:40:21;;;;;;;11.15;5.82;;;;;;;6.46;87.07;100632.34;5062642;28;20040;-76
2024/02/27 08:42:49;;;;;;;9.77;4.90;;;;;;;7.09;83.48;100645.38;5050715;28;20041;-75
2024/02/27 08:45:14;;;;;;;14.43;5.40;;;;;;;7.04;79.59;100641.38;5017958;28;20049;-79
2024/02/27 08:47:40;;;;;;;24.33;5.13;;;;;;;6.59;78.03;100662.22;5015334;28;20493;-80
2024/02/27 08:50:08;;;;;;;14.77;5.57;;;;;;;6.03;81.40;100640.69;5014001;28;20085;-76
2024/02/27 08:52:34;;;;;;;11.68;6.07;;;;;;;5.60;83.30;100668.22;5012731;28;20057;-76
2024/02/27 08:55:03;;;;;;;10.60;5.75;;;;;;;5.32;86.84;100648.13;5047066;28;20519;-77
2024/02/27 08:57:29;;;;;;;14.10;5.38;;;;;;;5.17;89.86;100664.91;5018825;28;20054;-78
2024/02/27 08:59:55;;;;;;;8.20;4.75;;;;;;;5.20;91.17;100659.47;5013643;28;20380;-75
2024/02/27 09:02:20;;;;;;;9.43;4.72;;;;;;;5.09;92.63;100664.56;5030756;28;20526;-76
2024/02/27 09:04:46;;;;;;;10.48;5.47;;;;;;;5.06;94.99;100656.88;5012997;28;20183;-70
2024/02/27 09:07:13;;;;;;;11.77;5.20;;;;;;;4.86;96.41;100665.19;4996824;28;20126;-74
2024/02/27 09:09:38;;;;;;;9.87;5.20;;;;;;;4.73;98.24;100662.50;5012239;28;20487;-75
2024/02/27 09:12:05;;;;;;;14.13;6.10;;;;;;;4.55;100.00;100647.03;5020255;28;20070;-74
2024/02/27 09:14:34;;;;;;;9.87;5.00;;;;;;;4.46;100.00;100658.13;4941759;28;20053;-72
2024/02/27 09:17:00;;;;;;;11.83;5.67;;;;;;;4.25;100.00;100669.94;4974172;28;20161;-73
2024/02/27 09:19:26;;;;;;;12.93;5.17;;;;;;;4.18;100.00;100668.63;5023363;28;20088;-73
2024/02/27 09:21:52;;;;;;;12.37;5.23;;;;;;;4.10;100.00;100676.13;5016099;28;20128;-73
2024/02/27 09:24:18;;;;;;;9.40;5.43;;;;;;;4.06;100.00;100653.59;5017789;28;20077;-72
2024/02/27 09:26:44;;;;;;;9.07;5.00;;;;;;;4.30;100.00;100649.47;5036117;28;20045;-74
2024/02/27 09:29:10;;;;;;;10.80;4.90;;;;;;;4.59;100.00;100651.16;5015452;28;20046;-76
2024/02/27 09:31:36;;;;;;;9.60;4.83;;;;;;;4.75;100.00;100649.25;5029696;28;20543;-76
2024/02/27 09:34:02;;;;;;;10.93;5.43;;;;;;;4.77;100.00;100668.41;5014457;28;20456;-73
2024/02/27 09:36:28;;;;;;;10.70;5.13;;;;;;;4.56;100.00;100657.44;5013696;28;20041;-75
2024/02/27 09:38:54;;;;;;;11.77;5.07;;;;;;;4.45;100.00;100661.69;4997441;28;20052;-76
2024/02/27 09:41:30;;;;;;;13.80;5.20;;;;;;;4.22;100.00;100657.84;5030667;28;20511;-76
2024/02/27 09:43:55;;;;;;;13.70;6.00;;;;;;;3.97;100.00;100647.09;5030251;28;20056;-75
2024/02/27 09:46:22;;;;;;;9.47;5.67;;;;;;;3.95;100.00;100635.00;5030496;28;20041;-73
2024/02/27 09:48:53;;;;;;;14.53;5.40;;;;;;;3.92;100.00;100637.81;4979701;28;20079;-76
2024/02/27 09:51:20;;;;;;;9.88;4.82;;;;;;;4.00;100.00;100632.94;5030100;28;20080;-70
2024/02/27 09:53:46;;;;;;;11.50;5.23;;;;;;;3.99;100.00;100633.88;5030702;28;20037;-75
2024/02/27 09:56:15;;;;;;;8.30;4.67;;;;;;;4.17;100.00;100630.13;5030145;28;20103;-75
2024/02/27 09:58:44;;;;;;;10.87;5.60;;;;;;;4.21;100.00;100632.50;4996786;28;20049;-76
2024/02/27 10:01:13;;;;;;;12.73;5.87;;;;;;;4.24;100.00;100628.81;5030592;28;20452;-71
2024/02/27 10:03:43;;;;;;;8.53;4.63;;;;;;;4.27;100.00;100620.75;5030237;28;20041;-72
2024/02/27 10:06:14;;;;;;;8.70;5.33;;;;;;;4.37;100.00;100619.22;4981089;28;20098;-80
2024/02/27 10:08:57;;;;;;;9.87;5.20;;;;;;;4.40;100.00;100638.28;4996886;28;20146;-75
2024/02/27 10:11:24;;;;;;;12.37;5.83;;;;;;;4.28;100.00;100630.31;5029684;28;20045;-68
2024/02/27 10:13:50;;;;;;;9.37;5.40;;;;;;;4.39;100.00;100631.34;5045397;28;20117;-71
2024/02/27 10:16:21;;;;;;;8.20;4.40;;;;;;;4.61;100.00;100626.41;5033198;28;20033;-71
2024/02/27 10:18:47;;;;;;;10.05;4.78;;;;;;;4.69;100.00;100625.97;5049396;28;20045;-67
2024/02/27 10:21:16;;;;;;;12.10;4.63;;;;;;;4.73;100.00;100627.44;5049466;28;20137;-76
2024/02/27 10:23:48;;;;;;;8.07;4.40;;;;;;;5.02;100.00;100621.16;5033357;28;20348;-75
2024/02/27 10:26:17;;;;;;;8.00;4.43;;;;;;;5.23;100.00;100630.28;5020325;28;20103;-70
2024/02/27 10:28:42;;;;;;;10.50;5.60;;;;;;;5.33;100.00;100631.38;5054331;28;20472;-76
2024/02/27 10:31:09;;;;;;;9.02;4.57;;;;;;;5.61;100.00;100625.97;5036282;28;20487;-75
2024/02/27 10:33:39;;;;;;;10.95;5.28;;;;;;;5.83;100.00;100630.66;5054277;28;20041;-75
2024/02/27 10:36:06;;;;;;;13.82;5.85;;;;;;;5.69;100.00;100634.19;5036501;28;20045;-77
2024/02/27 10:38:32;;;;;;;11.27;5.18;;;;;;;5.71;100.00;100634.94;5052494;28;20033;-74
2024/02/27 10:41:19;;;;;;;15.45;6.97;;;;;;;5.63;100.00;100624.06;5054222;28;20056;-75
2024/02/27 10:43:45;;;;;;;8.88;5.00;;;;;;;5.84;100.00;100625.31;5053610;28;20041;-76
2024/02/27 10:46:11;;;;;;;9.60;4.45;;;;;;;6.14;100.00;100624.97;5052726;28;20052;-78
2024/02/27 10:48:42;;;;;;;8.02;4.30;;;;;;;6.54;100.00;100630.00;5069085;28;20102;-76
2024/02/27 10:51:08;;;;;;;7.43;4.47;;;;;;;6.43;96.77;100626.44;5053272;28;20037;-77
2024/02/27 10:53:33;;;;;;;8.27;5.00;;;;;;;6.23;93.86;100624.34;5052060;28;20056;-74
2024/02/27 10:56:00;;;;;;;8.52;5.07;;;;;;;6.43;93.82;100637.84;5052257;28;20395;-74
2024/02/27 10:58:27;;;;;;;7.53;5.10;;;;;;;6.66;94.24;100621.22;5068759;28;20048;-75
2024/02/27 11:00:55;;;;;;;9.38;5.22;;;;;;;7.10;90.43;100622.44;5036034;28;20468;-77
2024/02/27 11:03:21;;;;;;;11.05;5.78;;;;;;;7.50;84.13;100623.84;5035521;28;20041;-76
2024/02/27 11:05:47;;;;;;;16.13;7.78;;;;;;;8.32;79.91;100632.44;5035859;28;20044;-68
2024/02/27 11:08:15;;;;;;;15.40;8.25;;;;;;;10.52;69.88;100621.97;5053378;28;20060;-76
2024/02/27 11:10:40;;;;;;;9.50;5.75;;;;;;;11.88;57.84;100619.22;5053475;28;20059;-76
2024/02/27 11:13:08;;;;;;;12.30;5.53;;;;;;;12.20;54.41;100613.53;5018653;28;20115;-73
2024/02/27 11:15:35;;;;;;;16.20;6.90;;;;;;;12.00;52.92;100610.09;5068568;28;20041;-74
2024/02/27 11:18:06;;;;;;;9.80;5.90;;;;;;;13.19;52.84;100610.00;5036964;28;20041;-75